createdAt,value
2023-07-27T00:00:33.900Z,1.50
2023-07-27T00:03:00.757Z,2.22
2023-07-27T00:05:27.602Z,5.43
2023-07-27T00:07:54.629Z,4.28
2023-07-27T00:10:21.450Z,1.38
2023-07-27T00:12:48.222Z,1.58
2023-07-27T00:15:15.016Z,1.90
2023-07-27T00:17:41.866Z,2.40
2023-07-27T00:20:09.006Z,4.13
2023-07-27T00:22:35.786Z,2.25
2023-07-27T00:25:02.564Z,2.47
2023-07-27T00:27:29.372Z,4.63
2023-07-27T00:29:56.185Z,3.17
2023-07-27T00:32:23.338Z,1.98
2023-07-27T00:34:53.348Z,5.45
2023-07-27T00:37:20.141Z,2.65
2023-07-27T00:39:47.012Z,2.03
2023-07-27T00:42:13.858Z,2.75
2023-07-27T00:44:40.621Z,1.48
2023-07-27T00:47:07.615Z,3.00
2023-07-27T00:49:35.218Z,4.25
2023-07-27T00:52:07.068Z,3.10
2023-07-27T00:54:34.944Z,4.75
2023-07-27T00:57:02.444Z,2.85
2023-07-27T00:59:29.914Z,4.55
2023-07-27T01:01:57.318Z,1.75
2023-07-27T01:04:24.231Z,4.18
2023-07-27T01:06:51.413Z,7.18
2023-07-27T01:09:18.299Z,2.88
2023-07-27T01:12:14.398Z,2.75
2023-07-27T01:14:58.333Z,2.92
2023-07-27T01:17:34.092Z,3.30
2023-07-27T01:20:00.837Z,5.13
2023-07-27T01:22:33.532Z,4.18
2023-07-27T01:25:03.259Z,2.90
2023-07-27T01:27:41.891Z,4.95
2023-07-27T01:30:28.529Z,4.05
2023-07-27T01:33:06.416Z,3.42
2023-07-27T01:35:39.249Z,4.05
2023-07-27T01:38:06.920Z,4.55
2023-07-27T01:40:35.596Z,4.32
2023-07-27T01:43:03.514Z,4.32
2023-07-27T01:45:30.320Z,3.80
2023-07-27T01:47:58.224Z,4.03
2023-07-27T01:50:25.428Z,3.85
2023-07-27T01:52:53.908Z,2.60
2023-07-27T01:55:23.524Z,3.25
2023-07-27T01:57:51.505Z,4.88
2023-07-27T02:00:18.360Z,4.40
2023-07-27T02:02:45.770Z,3.10
2023-07-27T02:05:13.815Z,2.97
2023-07-27T02:07:40.592Z,3.78
2023-07-27T02:10:12.096Z,3.40
2023-07-27T02:12:45.527Z,3.95
2023-07-27T02:15:18.386Z,3.78
2023-07-27T02:17:53.153Z,3.17
2023-07-27T02:20:21.316Z,3.88
2023-07-27T02:22:48.774Z,2.67
2023-07-27T02:25:15.982Z,4.15
2023-07-27T02:27:42.764Z,3.45
2023-07-27T02:30:09.693Z,3.45
2023-07-27T02:32:36.561Z,3.83
2023-07-27T02:35:03.751Z,5.07
2023-07-27T02:37:30.544Z,3.97
2023-07-27T02:39:57.349Z,4.00
2023-07-27T02:42:24.103Z,4.97
2023-07-27T02:44:50.902Z,5.43
2023-07-27T02:47:18.600Z,3.75
2023-07-27T02:49:45.527Z,4.22
2023-07-27T02:52:12.309Z,6.05
2023-07-27T02:54:39.219Z,5.55
2023-07-27T02:57:06.169Z,4.60
2023-07-27T02:59:32.989Z,3.63
2023-07-27T03:01:59.811Z,4.25
2023-07-27T03:04:26.712Z,4.55
2023-07-27T03:06:53.475Z,3.58
2023-07-27T03:09:20.241Z,6.15
2023-07-27T03:11:47.024Z,6.95
2023-07-27T03:14:13.814Z,9.40
2023-07-27T03:16:40.609Z,4.40
2023-07-27T03:19:07.404Z,4.78
2023-07-27T03:21:34.219Z,5.60
2023-07-27T03:24:01.017Z,4.65
2023-07-27T03:26:27.960Z,4.60
2023-07-27T03:28:54.903Z,6.32
2023-07-27T03:31:27.287Z,4.18
2023-07-27T03:33:54.240Z,5.53
2023-07-27T03:36:22.134Z,7.50
2023-07-27T03:38:49.088Z,4.88
2023-07-27T03:41:16.006Z,4.85
2023-07-27T03:43:42.795Z,4.60
2023-07-27T03:46:09.631Z,3.30
2023-07-27T03:48:36.796Z,4.00
2023-07-27T03:51:04.455Z,3.72
2023-07-27T03:53:31.521Z,6.30
2023-07-27T03:55:58.385Z,3.78
2023-07-27T03:58:25.194Z,4.00
2023-07-27T04:00:52.131Z,4.18
2023-07-27T04:03:18.948Z,3.78
2023-07-27T04:05:45.765Z,5.10
2023-07-27T04:08:12.580Z,4.40
2023-07-27T04:10:40.594Z,6.65
2023-07-27T04:13:07.420Z,3.83
2023-07-27T04:15:35.289Z,4.68
2023-07-27T04:18:02.149Z,4.93
2023-07-27T04:20:29.026Z,3.80
2023-07-27T04:22:55.830Z,8.75
2023-07-27T04:25:22.691Z,6.57
2023-07-27T04:27:53.104Z,4.57
2023-07-27T04:30:20.344Z,5.35
2023-07-27T04:32:47.197Z,7.25
2023-07-27T04:35:14.068Z,4.18
2023-07-27T04:37:40.851Z,8.55
2023-07-27T04:40:08.102Z,5.82
2023-07-27T04:42:34.886Z,4.93
2023-07-27T04:45:01.629Z,7.97
2023-07-27T04:47:29.405Z,5.75
2023-07-27T04:49:56.911Z,4.28
2023-07-27T04:52:23.699Z,7.57
2023-07-27T04:54:50.457Z,4.80
2023-07-27T04:57:17.248Z,5.90
2023-07-27T04:59:44.068Z,5.30
2023-07-27T05:02:10.899Z,5.97
2023-07-27T05:04:37.703Z,5.63
2023-07-27T05:07:04.711Z,6.68
2023-07-27T05:09:31.473Z,9.32
2023-07-27T05:11:58.241Z,6.43
2023-07-27T05:14:25.033Z,7.35
2023-07-27T05:16:52.873Z,6.38
2023-07-27T05:19:19.756Z,6.78
2023-07-27T05:21:46.528Z,5.63
2023-07-27T05:24:13.341Z,5.47
2023-07-27T05:26:40.306Z,9.02
2023-07-27T05:29:07.040Z,7.38
2023-07-27T05:31:33.916Z,7.43
2023-07-27T05:34:00.711Z,7.55
2023-07-27T05:36:27.494Z,8.40
2023-07-27T05:38:55.569Z,7.07
2023-07-27T05:41:22.329Z,7.75
2023-07-27T05:43:49.055Z,7.68
2023-07-27T05:46:16.403Z,8.90
2023-07-27T05:48:43.223Z,8.55
2023-07-27T05:51:10.668Z,7.47
2023-07-27T05:53:37.461Z,6.75
2023-07-27T05:56:07.390Z,10.02
2023-07-27T05:58:34.274Z,8.00
2023-07-27T06:01:04.868Z,6.45
2023-07-27T06:03:33.066Z,6.18
2023-07-27T06:06:00.486Z,9.23
2023-07-27T06:08:27.496Z,6.15
2023-07-27T06:11:05.645Z,12.70
2023-07-27T06:13:33.806Z,6.63
2023-07-27T06:16:01.340Z,10.95
2023-07-27T06:18:28.032Z,8.02
2023-07-27T06:20:55.192Z,9.73
2023-07-27T06:23:21.748Z,9.05
2023-07-27T06:25:48.250Z,8.52
2023-07-27T06:28:14.914Z,8.95
2023-07-27T06:30:41.781Z,7.43
2023-07-27T06:33:08.403Z,10.20
2023-07-27T06:35:35.488Z,6.57
2023-07-27T06:38:02.275Z,8.88
2023-07-27T06:40:29.115Z,7.40
2023-07-27T06:42:55.680Z,5.18
2023-07-27T06:45:22.236Z,9.82
2023-07-27T06:47:49.510Z,7.32
2023-07-27T06:50:16.194Z,7.68
2023-07-27T06:52:42.824Z,7.72
2023-07-27T06:55:09.607Z,6.72
2023-07-27T06:57:36.137Z,7.95
2023-07-27T07:00:04.148Z,7.68
2023-07-27T07:02:30.809Z,6.45
2023-07-27T07:04:57.418Z,6.72
2023-07-27T07:07:24.551Z,6.72
2023-07-27T07:09:51.081Z,6.68
2023-07-27T07:12:17.678Z,9.05
2023-07-27T07:14:44.199Z,7.68
2023-07-27T07:17:10.706Z,9.20
2023-07-27T07:19:37.242Z,6.80
2023-07-27T07:22:04.066Z,9.32
2023-07-27T07:24:30.593Z,9.48
2023-07-27T07:26:57.149Z,9.82
2023-07-27T07:29:23.663Z,7.53
2023-07-27T07:31:50.204Z,7.40
2023-07-27T07:34:16.750Z,8.70
2023-07-27T07:36:44.042Z,7.57
2023-07-27T07:39:10.557Z,11.23
2023-07-27T07:41:37.059Z,7.97
2023-07-27T07:44:03.730Z,9.80
2023-07-27T07:46:30.285Z,10.50
2023-07-27T07:48:58.443Z,5.75
2023-07-27T07:51:24.991Z,9.13
2023-07-27T07:53:51.486Z,7.78
2023-07-27T07:56:19.029Z,10.13
2023-07-27T07:58:46.099Z,8.77
2023-07-27T08:01:12.630Z,10.15
2023-07-27T08:03:39.446Z,9.52
2023-07-27T08:06:08.206Z,9.32
2023-07-27T08:08:35.547Z,11.38
2023-07-27T08:11:03.918Z,8.30
2023-07-27T08:13:33.758Z,11.60
2023-07-27T08:16:00.500Z,10.98
2023-07-27T08:18:29.877Z,10.57
2023-07-27T08:23:28.954Z,9.70
2023-07-27T08:25:56.871Z,10.30
2023-07-27T08:28:24.009Z,14.25
2023-07-27T08:30:51.403Z,9.68
2023-07-27T08:33:18.262Z,10.60
2023-07-27T08:35:45.109Z,8.68
2023-07-27T08:38:12.003Z,10.10
2023-07-27T08:40:38.901Z,9.85
2023-07-27T08:43:08.527Z,9.27
2023-07-27T08:45:36.726Z,10.30
2023-07-27T08:48:04.904Z,11.65
2023-07-27T08:50:32.447Z,12.30
2023-07-27T08:52:59.211Z,12.70
2023-07-27T08:55:26.013Z,10.88
2023-07-27T08:57:52.762Z,10.07
2023-07-27T09:00:19.876Z,14.82
2023-07-27T09:02:47.201Z,11.15
2023-07-27T09:05:17.207Z,10.38
2023-07-27T09:07:50.561Z,9.57
2023-07-27T09:10:18.342Z,10.57
2023-07-27T09:12:45.045Z,10.43
2023-07-27T09:15:16.383Z,9.48
2023-07-27T09:17:43.358Z,9.48
2023-07-27T09:20:13.217Z,11.52
2023-07-27T09:22:48.768Z,13.43
2023-07-27T09:25:20.409Z,8.95
2023-07-27T09:27:47.191Z,8.55
2023-07-27T09:30:17.418Z,9.85
2023-07-27T09:32:44.404Z,8.07
2023-07-27T09:35:16.003Z,8.48
2023-07-27T09:37:53.440Z,9.18
2023-07-27T09:40:25.204Z,12.00
2023-07-27T09:42:52.604Z,9.10
2023-07-27T09:45:20.666Z,12.20
2023-07-27T09:47:49.691Z,10.85
2023-07-27T09:50:17.777Z,9.10
2023-07-27T09:52:45.702Z,10.13
2023-07-27T09:55:14.806Z,8.52
2023-07-27T09:57:42.488Z,8.98
2023-07-27T10:00:11.050Z,10.75
2023-07-27T10:02:37.913Z,9.13
2023-07-27T10:05:05.373Z,8.60
2023-07-27T10:07:44.179Z,9.10
2023-07-27T10:10:35.138Z,7.90
2023-07-27T10:13:15.369Z,9.60
2023-07-27T10:15:44.290Z,8.10
2023-07-27T10:18:15.717Z,10.23
2023-07-27T10:20:42.852Z,10.85
2023-07-27T10:23:21.218Z,9.40
2023-07-27T10:25:54.310Z,11.43
2023-07-27T10:28:31.252Z,9.70
2023-07-27T10:31:24.621Z,9.07
2023-07-27T10:34:22.820Z,10.90
2023-07-27T10:37:02.050Z,7.43
2023-07-27T10:39:34.650Z,10.68
2023-07-27T10:42:13.379Z,10.07
2023-07-27T10:44:41.012Z,13.63
2023-07-27T10:47:15.339Z,12.25
2023-07-27T10:49:49.713Z,8.95
2023-07-27T10:52:21.539Z,10.48
2023-07-27T10:54:49.697Z,9.90
2023-07-27T10:57:19.113Z,8.95
2023-07-27T10:59:48.374Z,6.65
2023-07-27T11:02:30.556Z,10.10
2023-07-27T11:04:58.624Z,7.50
2023-07-27T11:07:32.626Z,8.85
2023-07-27T11:10:00.467Z,7.82
2023-07-27T11:12:27.239Z,9.38
2023-07-27T11:14:53.862Z,7.20
2023-07-27T11:17:21.084Z,8.80
2023-07-27T11:19:48.233Z,7.20
2023-07-27T11:22:16.956Z,7.68
2023-07-27T11:24:43.772Z,8.93
2023-07-27T11:27:12.002Z,8.02
2023-07-27T11:29:40.879Z,11.27
2023-07-27T11:32:07.978Z,9.13
2023-07-27T11:34:36.290Z,7.28
2023-07-27T11:37:02.956Z,7.85
2023-07-27T11:39:30.578Z,6.70
2023-07-27T11:42:04.211Z,6.00
2023-07-27T11:44:30.816Z,7.05
2023-07-27T11:46:57.463Z,6.68
2023-07-27T11:49:24.255Z,6.38
2023-07-27T11:51:51.165Z,5.60
2023-07-27T11:54:28.363Z,5.53
2023-07-27T11:56:58.218Z,5.75
2023-07-27T11:59:25.116Z,5.22
2023-07-27T12:01:53.326Z,6.82
2023-07-27T12:04:21.476Z,4.63
2023-07-27T12:06:49.044Z,5.43
2023-07-27T12:09:15.782Z,8.10
2023-07-27T12:11:42.392Z,6.90
2023-07-27T12:14:10.161Z,6.85
2023-07-27T12:19:08.807Z,5.10
2023-07-27T12:21:36.841Z,7.18
2023-07-27T12:34:08.078Z,6.78
2023-07-27T12:36:34.695Z,5.07
2023-07-27T12:39:01.295Z,6.00
2023-07-27T12:41:27.838Z,5.20
2023-07-27T12:43:56.143Z,5.32
2023-07-27T12:46:23.060Z,6.10
2023-07-27T12:48:49.762Z,6.57
2023-07-27T12:51:17.074Z,4.80
2023-07-27T12:53:43.822Z,4.68
2023-07-27T12:56:10.699Z,6.82
2023-07-27T12:59:06.830Z,4.15
2023-07-27T13:01:33.723Z,4.57
2023-07-27T13:04:00.996Z,4.38
2023-07-27T13:06:27.841Z,6.55
2023-07-27T13:08:54.752Z,3.92
2023-07-27T13:11:22.375Z,5.20
2023-07-27T13:13:49.082Z,3.25
2023-07-27T13:16:15.840Z,4.20
2023-07-27T13:18:42.575Z,4.13
2023-07-27T13:21:09.378Z,3.40
2023-07-27T13:23:36.215Z,4.55
2023-07-27T13:26:07.182Z,4.70
2023-07-27T13:28:34.147Z,4.65
2023-07-27T13:31:01.116Z,4.78
2023-07-27T13:33:28.175Z,4.10
2023-07-27T13:35:54.957Z,4.05
2023-07-27T13:38:21.784Z,3.67
2023-07-27T13:40:48.615Z,4.22
2023-07-27T13:43:15.337Z,5.88
2023-07-27T13:45:42.115Z,5.25
2023-07-27T13:48:10.508Z,4.78
2023-07-27T13:50:38.186Z,4.20
2023-07-27T13:53:09.797Z,4.57
2023-07-27T13:55:36.965Z,3.17
2023-07-27T13:58:03.941Z,3.33
2023-07-27T14:00:30.699Z,3.10
2023-07-27T14:02:57.686Z,3.20
2023-07-27T14:05:24.577Z,2.75
2023-07-27T14:07:51.447Z,3.25
2023-07-27T14:10:18.436Z,2.47
2023-07-27T14:12:45.244Z,3.65
2023-07-27T14:15:12.061Z,2.50
2023-07-27T14:17:38.921Z,3.22
2023-07-27T14:20:07.371Z,4.18
2023-07-27T14:22:36.542Z,2.97
2023-07-27T14:25:04.436Z,2.55
2023-07-27T14:30:02.850Z,4.00
2023-07-27T14:32:31.029Z,3.00
2023-07-27T14:34:58.970Z,4.65
2023-07-27T14:37:25.805Z,3.50
2023-07-27T14:39:52.816Z,3.47
2023-07-27T14:42:19.925Z,4.88
2023-07-27T14:44:48.485Z,2.95
2023-07-27T14:47:15.806Z,3.50
2023-07-27T14:49:42.671Z,4.68
2023-07-27T14:52:09.954Z,5.60
2023-07-27T14:54:36.733Z,3.35
2023-07-27T14:57:06.193Z,3.28
2023-07-27T14:59:43.645Z,2.90
2023-07-27T15:02:28.028Z,2.78
2023-07-27T15:04:55.563Z,2.83
2023-07-27T15:07:22.562Z,3.60
2023-07-27T15:09:50.690Z,3.00
2023-07-27T15:12:17.473Z,3.63
2023-07-27T15:14:44.206Z,4.50
2023-07-27T15:17:10.990Z,5.95
2023-07-27T15:19:37.727Z,4.47
2023-07-27T15:22:05.534Z,2.92
2023-07-27T15:24:34.533Z,2.72
2023-07-27T15:27:03.891Z,3.42
2023-07-27T15:29:30.929Z,3.72
2023-07-27T15:31:57.706Z,3.05
2023-07-27T15:34:24.415Z,3.95
2023-07-27T15:36:51.133Z,3.85
2023-07-27T15:39:17.841Z,2.58
2023-07-27T15:41:44.569Z,3.47
2023-07-27T15:44:11.271Z,2.70
2023-07-27T15:46:38.236Z,3.03
2023-07-27T15:49:05.348Z,3.00
2023-07-27T15:51:32.113Z,3.67
2023-07-27T15:53:58.861Z,2.33
2023-07-27T15:56:25.568Z,2.95
2023-07-27T15:58:52.302Z,3.30
2023-07-27T16:01:19.077Z,2.55
2023-07-27T16:03:45.984Z,2.38
2023-07-27T16:06:12.816Z,3.20
2023-07-27T16:08:39.750Z,3.72
2023-07-27T16:11:11.514Z,5.30
2023-07-27T16:13:38.751Z,2.65
2023-07-27T16:16:05.648Z,3.05
2023-07-27T16:18:35.685Z,3.60
2023-07-27T16:21:03.543Z,3.05
2023-07-27T16:23:32.150Z,2.67
2023-07-27T16:26:06.731Z,2.63
2023-07-27T16:28:34.047Z,2.13
2023-07-27T16:31:00.856Z,2.47
2023-07-27T16:33:27.646Z,2.85
2023-07-27T16:35:54.437Z,4.13
2023-07-27T16:38:21.190Z,1.60
2023-07-27T16:40:53.944Z,2.67
2023-07-27T16:43:21.130Z,3.80
2023-07-27T16:45:47.687Z,3.70
2023-07-27T16:48:14.478Z,2.88
2023-07-27T16:50:41.313Z,10.50
2023-07-27T16:53:07.994Z,2.70
2023-07-27T16:55:37.160Z,4.32
2023-07-27T17:00:34.399Z,3.15
2023-07-27T17:03:01.137Z,2.50
2023-07-27T17:05:27.833Z,2.58
2023-07-27T17:07:54.568Z,3.83
2023-07-27T17:10:21.101Z,3.40
2023-07-27T17:12:47.642Z,2.28
2023-07-27T17:15:14.247Z,1.95
2023-07-27T17:17:40.793Z,1.40
2023-07-27T17:20:07.808Z,4.57
2023-07-27T17:22:34.312Z,2.20
2023-07-27T17:25:00.825Z,7.03
2023-07-27T17:27:27.384Z,3.30
2023-07-27T17:29:53.959Z,2.72
2023-07-27T17:32:21.425Z,2.97
2023-07-27T17:34:48.013Z,2.72
2023-07-27T17:37:14.556Z,2.38
2023-07-27T17:39:42.392Z,3.20
2023-07-27T17:42:08.985Z,1.88
2023-07-27T17:44:35.516Z,2.72
2023-07-27T17:47:02.082Z,1.60
2023-07-27T17:49:28.817Z,2.50
2023-07-27T17:51:55.358Z,2.17
2023-07-27T17:54:21.876Z,2.60
2023-07-27T17:56:48.538Z,2.10
2023-07-27T17:59:15.063Z,2.38
2023-07-27T18:01:41.661Z,2.10
2023-07-27T18:04:08.691Z,3.00
2023-07-27T18:06:35.266Z,2.65
2023-07-27T18:09:01.879Z,5.22
2023-07-27T18:11:28.405Z,2.25
2023-07-27T18:13:54.941Z,2.08
2023-07-27T18:18:48.076Z,3.42
2023-07-27T18:21:17.331Z,2.50
2023-07-27T18:23:44.949Z,2.13
2023-07-27T18:26:19.406Z,3.85
2023-07-27T18:28:47.049Z,3.47
2023-07-27T18:31:13.666Z,6.97
2023-07-27T18:33:40.324Z,3.45
2023-07-27T18:36:16.085Z,2.20
2023-07-27T18:38:45.497Z,1.80
2023-07-27T18:41:17.594Z,2.00
2023-07-27T18:43:44.791Z,2.83
2023-07-27T18:46:17.298Z,2.78
2023-07-27T18:48:44.531Z,2.00
2023-07-27T18:51:11.550Z,3.28
2023-07-27T18:53:38.283Z,9.93
2023-07-27T18:56:05.232Z,3.08
2023-07-27T18:58:32.015Z,2.45
2023-07-27T19:00:58.852Z,3.03
2023-07-27T19:03:27.661Z,4.72
2023-07-27T19:05:54.513Z,2.33
2023-07-27T19:08:21.588Z,3.25
2023-07-27T19:10:48.733Z,2.85
2023-07-27T19:13:15.495Z,3.03
2023-07-27T19:15:49.583Z,3.35
2023-07-27T19:18:17.410Z,3.85
2023-07-27T19:20:44.344Z,4.00
2023-07-27T19:23:11.285Z,2.40
2023-07-27T19:25:42.865Z,4.25
2023-07-27T19:28:11.645Z,4.90
2023-07-27T19:30:40.206Z,2.65
2023-07-27T19:33:10.949Z,4.20
2023-07-27T19:35:38.873Z,5.35
2023-07-27T19:38:07.098Z,8.73
2023-07-27T19:40:34.519Z,6.90
2023-07-27T19:43:01.307Z,3.50
2023-07-27T19:45:28.234Z,3.55
2023-07-27T19:47:55.059Z,5.38
2023-07-27T19:50:21.847Z,4.47
2023-07-27T19:52:48.586Z,3.75
2023-07-27T19:55:15.436Z,5.60
2023-07-27T19:57:42.168Z,3.95
2023-07-27T20:00:10.571Z,3.50
2023-07-27T20:02:37.398Z,3.70
2023-07-27T20:05:04.653Z,2.83
2023-07-27T20:07:31.372Z,2.92
2023-07-27T20:09:58.188Z,2.92
2023-07-27T20:12:25.017Z,3.78
2023-07-27T20:14:51.737Z,3.78
2023-07-27T20:17:18.887Z,2.75
2023-07-27T20:19:45.740Z,3.75
2023-07-27T20:22:12.511Z,2.40
2023-07-27T20:24:40.872Z,2.83
2023-07-27T20:27:09.831Z,3.42
2023-07-27T20:29:36.547Z,2.70
2023-07-27T20:32:03.564Z,3.10
2023-07-27T20:34:30.395Z,4.03
2023-07-27T20:36:57.138Z,2.10
2023-07-27T20:39:24.184Z,4.22
2023-07-27T20:41:54.652Z,2.75
2023-07-27T20:44:22.018Z,2.85
2023-07-27T20:46:48.861Z,2.95
2023-07-27T20:49:15.619Z,3.28
2023-07-27T20:51:42.569Z,3.97
2023-07-27T20:54:09.347Z,2.33
2023-07-27T20:56:36.425Z,3.45
2023-07-27T20:59:03.448Z,4.30
2023-07-27T21:01:30.219Z,2.10
2023-07-27T21:03:58.300Z,2.42
2023-07-27T21:06:26.014Z,2.13
2023-07-27T21:08:53.413Z,2.42
2023-07-27T21:11:20.340Z,3.03
2023-07-27T21:13:47.182Z,2.50
2023-07-27T21:16:14.029Z,1.88
2023-07-27T21:18:40.775Z,2.83
2023-07-27T21:21:18.640Z,2.38
2023-07-27T21:23:49.259Z,2.80
2023-07-27T21:26:16.178Z,3.72
2023-07-27T21:28:44.722Z,2.75
2023-07-27T21:31:11.718Z,2.78
2023-07-27T21:33:38.952Z,4.35
2023-07-27T21:36:07.189Z,1.95
2023-07-27T21:38:34.187Z,3.10
2023-07-27T21:41:01.015Z,3.08
2023-07-27T21:43:28.914Z,3.75
2023-07-27T21:45:56.231Z,2.78
2023-07-27T21:48:23.190Z,3.08
2023-07-27T21:50:52.445Z,3.13
2023-07-27T21:53:19.566Z,1.98
2023-07-27T21:55:46.959Z,2.22
2023-07-27T21:58:13.955Z,2.13
2023-07-27T22:00:40.756Z,2.88
2023-07-27T22:03:08.150Z,2.10
2023-07-27T22:05:35.021Z,3.30
2023-07-27T22:08:02.277Z,2.42
2023-07-27T22:10:29.066Z,2.63
2023-07-27T22:12:55.784Z,2.22
2023-07-27T22:15:22.529Z,2.30
2023-07-27T22:17:49.717Z,2.42
2023-07-27T22:20:17.048Z,1.83
2023-07-27T22:22:43.858Z,4.60
2023-07-27T22:25:11.319Z,1.70
2023-07-27T22:27:38.553Z,3.67
2023-07-27T22:30:07.117Z,2.97
2023-07-27T22:32:34.085Z,2.60
2023-07-27T22:35:00.960Z,2.25
2023-07-27T22:37:27.615Z,2.13
2023-07-27T22:39:54.249Z,2.63
2023-07-27T22:42:20.950Z,3.03
2023-07-27T22:44:47.668Z,3.13
2023-07-27T22:47:14.278Z,3.25
2023-07-27T22:49:41.416Z,2.78
2023-07-27T22:52:08.132Z,3.08
2023-07-27T22:54:34.700Z,4.68
2023-07-27T22:57:01.240Z,4.13
2023-07-27T22:59:28.014Z,3.13
2023-07-27T23:01:55.998Z,2.70
2023-07-27T23:04:22.596Z,2.88
2023-07-27T23:06:49.157Z,3.65
2023-07-27T23:09:16.071Z,3.38
2023-07-27T23:11:42.618Z,3.67
2023-07-27T23:14:09.731Z,3.83
2023-07-27T23:16:36.702Z,3.72
2023-07-27T23:19:03.568Z,4.88
2023-07-27T23:21:30.145Z,4.25
2023-07-27T23:23:56.694Z,6.88
2023-07-27T23:26:23.224Z,1.83
2023-07-27T23:28:49.750Z,2.50
2023-07-27T23:31:16.284Z,2.28
2023-07-27T23:33:43.363Z,5.75
2023-07-27T23:36:12.319Z,3.40
2023-07-27T23:38:39.812Z,2.92
2023-07-27T23:41:06.612Z,2.55
2023-07-27T23:43:33.150Z,2.15
2023-07-27T23:45:59.705Z,1.70
2023-07-27T23:48:26.335Z,3.72
2023-07-27T23:50:52.933Z,2.70
2023-07-27T23:53:19.484Z,2.63
2023-07-27T23:55:46.054Z,2.30
2023-07-27T23:58:12.617Z,1.88
